createdAt,value
2023-05-29T00:02:06.564Z,6.63
2023-05-29T00:04:33.366Z,6.32
2023-05-29T00:07:02.140Z,5.43
2023-05-29T00:09:29.212Z,6.65
2023-05-29T00:11:55.933Z,6.15
2023-05-29T00:14:23.565Z,6.57
2023-05-29T00:16:51.350Z,6.22
2023-05-29T00:19:18.267Z,7.70
2023-05-29T00:21:45.022Z,7.28
2023-05-29T00:24:11.677Z,6.80
2023-05-29T00:26:38.329Z,6.40
2023-05-29T00:29:05.287Z,7.57
2023-05-29T00:31:33.695Z,5.57
2023-05-29T00:34:00.481Z,6.72
2023-05-29T00:36:27.383Z,6.63
2023-05-29T00:38:54.241Z,5.45
2023-05-29T00:41:21.238Z,6.78
2023-05-29T00:43:47.879Z,6.18
2023-05-29T00:46:15.644Z,6.47
2023-05-29T00:48:45.465Z,6.95
2023-05-29T00:51:14.986Z,6.60
2023-05-29T00:53:42.521Z,6.75
2023-05-29T00:56:10.224Z,6.88
2023-05-29T00:58:37.461Z,5.85
2023-05-29T01:01:04.513Z,5.47
2023-05-29T01:03:33.365Z,6.15
2023-05-29T01:06:01.626Z,5.85
2023-05-29T01:08:28.692Z,5.82
2023-05-29T01:10:58.009Z,6.28
2023-05-29T01:13:28.181Z,6.88
2023-05-29T01:16:02.491Z,6.22
2023-05-29T01:18:50.441Z,6.10
2023-05-29T01:21:51.392Z,6.10
2023-05-29T01:24:43.859Z,5.38
2023-05-29T01:27:11.487Z,6.68
2023-05-29T01:29:40.325Z,7.70
2023-05-29T01:32:07.805Z,5.57
2023-05-29T01:34:34.480Z,5.55
2023-05-29T01:37:01.148Z,6.63
2023-05-29T01:39:30.945Z,5.72
2023-05-29T01:41:59.559Z,4.88
2023-05-29T01:44:26.980Z,5.95
2023-05-29T01:46:54.097Z,5.35
2023-05-29T01:49:22.027Z,6.38
2023-05-29T01:51:49.015Z,5.35
2023-05-29T01:54:15.990Z,5.93
2023-05-29T01:56:42.826Z,5.80
2023-05-29T01:59:11.526Z,6.00
2023-05-29T02:01:40.699Z,5.30
2023-05-29T02:04:07.546Z,5.72
2023-05-29T02:06:37.668Z,6.30
2023-05-29T02:09:04.409Z,5.85
2023-05-29T02:11:31.371Z,5.47
2023-05-29T02:13:58.344Z,7.43
2023-05-29T02:16:28.876Z,6.03
2023-05-29T02:18:56.197Z,5.25
2023-05-29T02:21:23.156Z,6.90
2023-05-29T02:23:49.823Z,6.30
2023-05-29T02:26:17.420Z,5.85
2023-05-29T02:28:44.199Z,6.80
2023-05-29T02:31:11.302Z,6.63
2023-05-29T02:33:38.013Z,6.60
2023-05-29T02:36:04.952Z,6.13
2023-05-29T02:38:31.603Z,5.97
2023-05-29T02:40:58.349Z,6.95
2023-05-29T02:43:26.253Z,6.95
2023-05-29T02:45:52.969Z,6.55
2023-05-29T02:48:19.717Z,6.80
2023-05-29T02:50:46.373Z,5.80
2023-05-29T02:53:13.041Z,5.45
2023-05-29T02:55:39.889Z,5.63
2023-05-29T02:58:06.513Z,6.53
2023-05-29T03:00:33.169Z,5.78
2023-05-29T03:03:00.261Z,5.93
2023-05-29T03:05:27.075Z,6.40
2023-05-29T03:07:54.153Z,6.30
2023-05-29T03:10:21.787Z,5.32
2023-05-29T03:12:48.460Z,5.65
2023-05-29T03:15:15.740Z,6.05
2023-05-29T03:17:42.620Z,5.32
2023-05-29T03:20:12.985Z,6.43
2023-05-29T03:22:39.865Z,6.60
2023-05-29T03:25:07.034Z,5.05
2023-05-29T03:27:34.728Z,4.82
2023-05-29T03:30:08.702Z,6.30
2023-05-29T03:32:35.577Z,5.60
2023-05-29T03:35:04.618Z,5.22
2023-05-29T03:37:31.438Z,5.53
2023-05-29T03:39:58.553Z,5.90
2023-05-29T03:42:25.278Z,6.05
2023-05-29T03:44:53.027Z,5.63
2023-05-29T03:47:19.804Z,6.35
2023-05-29T03:49:46.546Z,6.43
2023-05-29T03:52:13.483Z,6.63
2023-05-29T03:54:40.170Z,7.03
2023-05-29T03:57:07.918Z,5.30
2023-05-29T03:59:34.669Z,6.30
2023-05-29T04:02:01.488Z,6.32
2023-05-29T04:04:28.411Z,6.32
2023-05-29T04:06:55.542Z,6.57
2023-05-29T04:09:22.388Z,6.45
2023-05-29T04:11:49.049Z,7.65
2023-05-29T04:14:15.921Z,6.50
2023-05-29T04:16:42.644Z,6.82
2023-05-29T04:19:09.400Z,7.03
2023-05-29T04:21:36.218Z,7.10
2023-05-29T04:24:03.038Z,6.65
2023-05-29T04:26:29.949Z,7.53
2023-05-29T04:28:59.545Z,7.20
2023-05-29T04:31:27.294Z,7.25
2023-05-29T04:33:56.038Z,7.22
2023-05-29T04:36:27.202Z,6.90
2023-05-29T04:39:04.855Z,7.32
2023-05-29T04:41:32.255Z,7.30
2023-05-29T04:44:00.623Z,7.57
2023-05-29T04:46:36.322Z,5.13
2023-05-29T04:49:05.769Z,7.45
2023-05-29T04:51:32.889Z,7.53
2023-05-29T04:53:59.644Z,9.88
2023-05-29T04:56:27.754Z,8.55
2023-05-29T04:58:54.596Z,7.60
2023-05-29T05:01:21.680Z,8.40
2023-05-29T05:03:48.506Z,8.40
2023-05-29T05:06:18.038Z,8.23
2023-05-29T05:08:44.836Z,7.13
2023-05-29T05:11:11.682Z,7.50
2023-05-29T05:13:40.528Z,7.10
2023-05-29T05:16:07.448Z,7.05
2023-05-29T05:18:34.695Z,8.13
2023-05-29T05:21:05.062Z,7.85
2023-05-29T05:23:42.305Z,7.13
2023-05-29T05:26:12.560Z,6.55
2023-05-29T05:28:39.379Z,7.10
2023-05-29T05:31:06.148Z,7.05
2023-05-29T05:33:33.371Z,7.75
2023-05-29T05:36:00.095Z,8.35
2023-05-29T05:38:27.248Z,7.88
2023-05-29T05:40:54.906Z,9.63
2023-05-29T05:43:28.323Z,7.68
2023-05-29T05:46:11.535Z,8.70
2023-05-29T05:48:38.387Z,7.72
2023-05-29T05:51:05.100Z,7.55
2023-05-29T05:53:32.833Z,8.38
2023-05-29T05:55:59.503Z,6.97
2023-05-29T05:58:26.578Z,7.55
2023-05-29T06:00:53.847Z,7.55
2023-05-29T06:03:21.951Z,7.15
2023-05-29T06:06:02.301Z,8.27
2023-05-29T06:08:29.303Z,7.93
2023-05-29T06:10:57.340Z,6.93
2023-05-29T06:13:24.411Z,7.03
2023-05-29T06:15:59.088Z,7.95
2023-05-29T06:18:25.786Z,6.82
2023-05-29T06:20:52.835Z,7.18
2023-05-29T06:23:19.809Z,7.50
2023-05-29T06:25:47.638Z,6.43
2023-05-29T06:28:15.054Z,7.30
2023-05-29T06:30:42.814Z,6.97
2023-05-29T06:33:10.326Z,8.30
2023-05-29T06:35:39.508Z,7.10
2023-05-29T06:38:06.989Z,6.07
2023-05-29T06:40:33.719Z,7.03
2023-05-29T06:43:01.972Z,6.32
2023-05-29T06:45:38.830Z,6.38
2023-05-29T06:48:06.933Z,6.97
2023-05-29T06:50:35.280Z,7.05
2023-05-29T06:53:25.081Z,7.05
2023-05-29T06:55:54.662Z,6.50
2023-05-29T06:58:21.412Z,7.28
2023-05-29T07:00:48.293Z,6.75
2023-05-29T07:03:34.567Z,7.15
2023-05-29T07:06:03.422Z,7.00
2023-05-29T07:08:32.307Z,7.65
2023-05-29T07:10:59.012Z,7.90
2023-05-29T07:13:26.386Z,6.28
2023-05-29T07:15:53.189Z,7.43
2023-05-29T07:18:26.096Z,5.57
2023-05-29T07:20:53.043Z,5.97
2023-05-29T07:23:21.632Z,6.45
2023-05-29T07:25:48.319Z,6.32
2023-05-29T07:30:47.772Z,7.15
2023-05-29T07:33:14.516Z,6.32
2023-05-29T07:35:41.708Z,6.32
2023-05-29T07:38:08.350Z,6.15
2023-05-29T07:40:35.377Z,6.15
2023-05-29T07:43:32.530Z,6.75
2023-05-29T07:46:02.406Z,6.30
2023-05-29T07:48:30.023Z,6.63
2023-05-29T07:50:58.124Z,6.47
2023-05-29T07:53:27.470Z,5.93
2023-05-29T07:55:54.352Z,7.07
2023-05-29T07:58:21.814Z,6.47
2023-05-29T08:00:48.559Z,6.25
2023-05-29T08:03:18.254Z,6.40
2023-05-29T08:06:04.227Z,6.22
2023-05-29T08:08:32.819Z,6.70
2023-05-29T08:10:59.479Z,6.88
2023-05-29T08:13:26.263Z,7.03
2023-05-29T08:15:54.908Z,6.18
2023-05-29T08:18:21.767Z,7.38
2023-05-29T08:20:48.719Z,6.53
2023-05-29T08:23:15.688Z,7.15
2023-05-29T08:25:42.311Z,6.60
2023-05-29T08:28:09.089Z,6.88
2023-05-29T08:30:35.925Z,7.10
2023-05-29T08:33:02.755Z,6.85
2023-05-29T08:35:29.507Z,7.22
2023-05-29T08:37:56.409Z,6.57
2023-05-29T08:40:24.472Z,5.93
2023-05-29T08:42:59.018Z,7.30
2023-05-29T08:45:26.076Z,6.28
2023-05-29T08:47:54.037Z,7.35
2023-05-29T08:50:22.285Z,6.68
2023-05-29T08:52:48.925Z,6.70
2023-05-29T08:55:16.077Z,7.05
2023-05-29T08:57:44.358Z,7.40
2023-05-29T09:00:13.605Z,7.50
2023-05-29T09:02:47.108Z,6.70
2023-05-29T09:05:14.501Z,6.80
2023-05-29T09:07:41.873Z,7.30
2023-05-29T09:10:10.112Z,7.00
2023-05-29T09:12:36.834Z,7.53
2023-05-29T09:15:03.957Z,7.40
2023-05-29T09:17:34.870Z,7.20
2023-05-29T09:20:01.705Z,8.38
2023-05-29T09:22:28.654Z,7.28
2023-05-29T09:24:55.376Z,6.03
2023-05-29T09:27:22.995Z,7.40
2023-05-29T09:29:49.744Z,7.18
2023-05-29T09:32:20.271Z,7.18
2023-05-29T09:34:47.098Z,6.78
2023-05-29T09:37:15.965Z,7.10
2023-05-29T09:39:44.398Z,7.25
2023-05-29T09:42:11.035Z,7.10
2023-05-29T09:44:37.676Z,6.10
2023-05-29T09:47:05.198Z,6.55
2023-05-29T09:49:33.081Z,5.90
2023-05-29T09:52:00.774Z,6.68
2023-05-29T09:54:31.051Z,6.90
2023-05-29T09:56:59.191Z,6.33
2023-05-29T09:59:26.372Z,6.30
2023-05-29T10:02:16.704Z,6.93
2023-05-29T10:04:45.152Z,5.10
2023-05-29T10:07:18.673Z,6.57
2023-05-29T10:09:49.132Z,7.70
2023-05-29T10:12:19.421Z,6.50
2023-05-29T10:14:47.140Z,6.80
2023-05-29T10:17:15.044Z,7.40
2023-05-29T10:19:43.594Z,6.93
2023-05-29T10:22:11.265Z,5.45
2023-05-29T10:24:38.180Z,6.35
2023-05-29T10:27:05.455Z,6.68
2023-05-29T10:29:39.017Z,5.65
2023-05-29T10:32:22.196Z,6.40
2023-05-29T10:34:58.245Z,5.82
2023-05-29T10:37:24.950Z,5.93
2023-05-29T10:39:51.670Z,6.53
2023-05-29T10:42:54.203Z,7.10
2023-05-29T10:45:33.373Z,6.53
2023-05-29T10:48:24.773Z,6.03
2023-05-29T10:53:24.097Z,7.22
2023-05-29T10:55:51.767Z,6.30
2023-05-29T10:58:28.492Z,5.78
2023-05-29T11:00:57.530Z,6.22
2023-05-29T11:03:34.665Z,6.25
2023-05-29T11:06:07.512Z,5.68
2023-05-29T11:08:48.869Z,6.53
2023-05-29T11:14:24.913Z,5.85
2023-05-29T11:16:52.433Z,5.72
2023-05-29T11:19:19.614Z,6.07
2023-05-29T11:21:51.290Z,6.80
2023-05-29T11:24:24.960Z,6.00
2023-05-29T11:26:59.416Z,6.30
2023-05-29T11:29:28.846Z,5.72
2023-05-29T11:32:13.569Z,5.70
2023-05-29T11:34:42.247Z,5.13
2023-05-29T11:37:08.951Z,6.18
2023-05-29T11:39:39.200Z,6.05
2023-05-29T11:42:06.683Z,5.30
2023-05-29T11:44:33.668Z,5.68
2023-05-29T11:47:08.429Z,5.88
2023-05-29T11:49:37.421Z,6.32
2023-05-29T11:52:16.180Z,5.55
2023-05-29T11:54:48.576Z,5.55
2023-05-29T11:57:20.441Z,6.05
2023-05-29T11:59:47.260Z,5.05
2023-05-29T12:02:15.315Z,5.45
2023-05-29T12:04:42.133Z,5.55
2023-05-29T12:07:21.042Z,6.05
2023-05-29T12:09:49.783Z,5.20
2023-05-29T12:12:16.773Z,6.20
2023-05-29T12:14:43.458Z,6.18
2023-05-29T12:17:10.303Z,4.95
2023-05-29T12:19:37.112Z,5.45
2023-05-29T12:22:03.826Z,5.65
2023-05-29T12:24:42.075Z,5.30
2023-05-29T12:27:10.045Z,5.03
2023-05-29T12:29:36.694Z,4.47
2023-05-29T12:32:04.149Z,5.20
2023-05-29T12:34:37.461Z,4.55
2023-05-29T12:37:14.829Z,4.82
2023-05-29T12:39:41.787Z,5.43
2023-05-29T12:42:08.747Z,5.15
2023-05-29T12:44:35.635Z,5.45
2023-05-29T12:47:02.282Z,5.05
2023-05-29T12:49:30.680Z,4.75
2023-05-29T12:52:05.901Z,5.38
2023-05-29T12:54:32.565Z,4.82
2023-05-29T12:57:02.128Z,4.95
2023-05-29T12:59:28.988Z,5.07
2023-05-29T13:01:55.770Z,4.47
2023-05-29T13:04:22.441Z,5.97
2023-05-29T13:06:49.133Z,4.38
2023-05-29T13:09:16.521Z,5.07
2023-05-29T13:11:43.274Z,4.80
2023-05-29T13:14:09.929Z,4.53
2023-05-29T13:16:37.030Z,4.18
2023-05-29T13:19:03.740Z,5.05
2023-05-29T13:21:30.540Z,4.38
2023-05-29T13:23:57.340Z,5.35
2023-05-29T13:26:24.049Z,5.07
2023-05-29T13:28:51.960Z,4.35
2023-05-29T13:31:18.787Z,4.65
2023-05-29T13:33:45.611Z,4.78
2023-05-29T13:36:12.277Z,4.57
2023-05-29T13:38:38.940Z,4.13
2023-05-29T13:41:05.580Z,4.70
2023-05-29T13:43:43.830Z,4.28
2023-05-29T13:46:12.032Z,4.57
2023-05-29T13:48:38.911Z,4.40
2023-05-29T13:51:05.646Z,4.32
2023-05-29T13:53:32.396Z,4.47
2023-05-29T13:55:59.071Z,5.25
2023-05-29T13:58:25.844Z,4.55
2023-05-29T14:00:52.469Z,5.20
2023-05-29T14:03:22.702Z,4.70
2023-05-29T14:05:49.601Z,4.93
2023-05-29T14:08:16.355Z,4.20
2023-05-29T14:10:42.971Z,4.07
2023-05-29T14:13:09.774Z,5.05
2023-05-29T14:15:38.706Z,4.05
2023-05-29T14:18:06.628Z,4.20
2023-05-29T14:20:33.496Z,4.47
2023-05-29T14:23:00.463Z,4.93
2023-05-29T14:25:27.488Z,4.90
2023-05-29T14:27:54.164Z,4.53
2023-05-29T14:30:20.908Z,4.93
2023-05-29T14:32:47.670Z,4.28
2023-05-29T14:35:14.336Z,4.30
2023-05-29T14:37:40.967Z,3.60
2023-05-29T14:40:08.046Z,5.45
2023-05-29T14:42:34.900Z,5.63
2023-05-29T14:45:01.681Z,5.38
2023-05-29T14:47:28.388Z,4.50
2023-05-29T14:49:54.997Z,4.53
2023-05-29T14:52:21.686Z,4.47
2023-05-29T14:54:48.394Z,4.55
2023-05-29T14:57:17.130Z,4.32
2023-05-29T14:59:43.856Z,5.07
2023-05-29T15:02:10.770Z,4.25
2023-05-29T15:04:37.447Z,5.15
2023-05-29T15:07:07.049Z,4.47
2023-05-29T15:09:33.964Z,4.57
2023-05-29T15:12:00.977Z,5.15
2023-05-29T15:14:27.711Z,3.83
2023-05-29T15:16:56.366Z,4.57
2023-05-29T15:19:23.197Z,5.38
2023-05-29T15:21:49.873Z,4.35
2023-05-29T15:24:16.618Z,4.35
2023-05-29T15:26:43.271Z,5.65
2023-05-29T15:29:09.989Z,4.78
2023-05-29T15:31:37.246Z,5.32
2023-05-29T15:34:03.931Z,5.00
2023-05-29T15:36:31.334Z,4.35
2023-05-29T15:38:58.276Z,4.57
2023-05-29T15:41:29.966Z,4.63
2023-05-29T15:43:57.633Z,4.25
2023-05-29T15:46:30.837Z,5.32
2023-05-29T15:48:57.871Z,4.80
2023-05-29T15:51:24.715Z,4.10
2023-05-29T15:53:51.363Z,4.35
2023-05-29T15:56:18.342Z,5.65
2023-05-29T15:58:45.093Z,4.38
2023-05-29T16:01:12.418Z,5.15
2023-05-29T16:03:39.141Z,4.95
2023-05-29T16:06:05.920Z,4.18
2023-05-29T16:08:32.573Z,4.97
2023-05-29T16:10:59.248Z,5.35
2023-05-29T16:13:26.120Z,5.85
2023-05-29T16:15:53.057Z,5.43
2023-05-29T16:18:19.897Z,5.05
2023-05-29T16:20:46.669Z,5.03
2023-05-29T16:23:13.481Z,5.40
2023-05-29T16:25:40.116Z,5.03
2023-05-29T16:28:06.788Z,5.30
2023-05-29T16:30:34.124Z,4.70
2023-05-29T16:33:00.858Z,4.07
2023-05-29T16:35:27.542Z,5.22
2023-05-29T16:37:54.480Z,5.07
2023-05-29T16:40:21.422Z,4.38
2023-05-29T16:42:48.263Z,5.50
2023-05-29T16:45:15.024Z,5.18
2023-05-29T16:47:41.747Z,5.43
2023-05-29T16:50:08.720Z,4.20
2023-05-29T16:52:35.416Z,4.43
2023-05-29T16:55:03.115Z,4.03
2023-05-29T16:57:29.894Z,4.07
2023-05-29T16:59:56.522Z,4.80
2023-05-29T17:02:23.238Z,5.63
2023-05-29T17:04:50.269Z,4.60
2023-05-29T17:07:16.968Z,5.00
2023-05-29T17:09:43.631Z,4.38
2023-05-29T17:12:11.191Z,5.05
2023-05-29T17:14:38.093Z,4.28
2023-05-29T17:17:05.308Z,4.70
2023-05-29T17:19:32.177Z,4.45
2023-05-29T17:22:00.232Z,4.28
2023-05-29T17:24:26.869Z,4.57
2023-05-29T17:26:53.500Z,5.13
2023-05-29T17:29:20.469Z,4.43
2023-05-29T17:31:47.113Z,4.78
2023-05-29T17:34:13.810Z,4.95
2023-05-29T17:36:40.461Z,4.30
2023-05-29T17:39:07.071Z,5.15
2023-05-29T17:41:33.854Z,4.97
2023-05-29T17:44:00.516Z,4.85
2023-05-29T17:46:27.240Z,4.40
2023-05-29T17:48:53.949Z,4.47
2023-05-29T17:51:23.007Z,4.50
2023-05-29T17:53:50.468Z,4.18
2023-05-29T17:56:18.168Z,4.82
2023-05-29T17:58:46.835Z,3.88
2023-05-29T18:01:13.680Z,5.30
2023-05-29T18:03:40.357Z,3.95
2023-05-29T18:06:07.675Z,3.85
2023-05-29T18:08:34.951Z,4.30
2023-05-29T18:11:01.610Z,4.60
2023-05-29T18:13:28.234Z,5.20
2023-05-29T18:15:55.105Z,4.93
2023-05-29T18:18:22.015Z,4.68
2023-05-29T18:20:48.813Z,5.30
2023-05-29T18:23:15.497Z,4.93
2023-05-29T18:25:42.139Z,5.10
2023-05-29T18:28:08.815Z,4.47
2023-05-29T18:30:36.747Z,4.63
2023-05-29T18:33:05.675Z,4.65
2023-05-29T18:35:32.442Z,4.63
2023-05-29T18:37:59.119Z,5.22
2023-05-29T18:40:25.965Z,4.65
2023-05-29T18:42:52.617Z,4.50
2023-05-29T18:45:19.337Z,4.38
2023-05-29T18:47:46.046Z,4.65
2023-05-29T18:50:13.585Z,4.88
2023-05-29T18:52:41.112Z,4.15
2023-05-29T18:55:08.521Z,3.47
2023-05-29T18:57:35.314Z,3.97
2023-05-29T19:00:02.328Z,4.57
2023-05-29T19:02:29.124Z,4.22
2023-05-29T19:04:55.874Z,4.65
2023-05-29T19:07:22.810Z,3.58
2023-05-29T19:09:50.835Z,3.80
2023-05-29T19:12:18.816Z,4.28
2023-05-29T19:14:45.952Z,3.67
2023-05-29T19:17:12.602Z,4.18
2023-05-29T19:19:42.076Z,3.70
2023-05-29T19:22:09.913Z,3.60
2023-05-29T19:24:36.886Z,4.05
2023-05-29T19:27:04.019Z,3.53
2023-05-29T19:29:31.005Z,3.67
2023-05-29T19:31:57.714Z,4.20
2023-05-29T19:34:25.320Z,3.95
2023-05-29T19:36:52.154Z,4.13
2023-05-29T19:39:19.224Z,3.70
2023-05-29T19:41:46.061Z,4.35
2023-05-29T19:44:12.769Z,4.20
2023-05-29T19:46:40.079Z,4.00
2023-05-29T19:49:07.140Z,3.83
2023-05-29T19:51:34.390Z,3.67
2023-05-29T19:54:01.375Z,4.82
2023-05-29T19:56:29.240Z,4.13
2023-05-29T19:58:56.075Z,4.40
2023-05-29T20:01:23.302Z,4.45
2023-05-29T20:03:50.605Z,3.65
2023-05-29T20:06:18.451Z,3.55
2023-05-29T20:08:45.323Z,3.92
2023-05-29T20:11:12.232Z,4.25
2023-05-29T20:13:38.898Z,4.45
2023-05-29T20:16:05.680Z,4.15
2023-05-29T20:18:33.020Z,3.90
2023-05-29T20:21:00.069Z,3.80
2023-05-29T20:23:27.093Z,3.97
2023-05-29T20:25:53.864Z,4.65
2023-05-29T20:28:24.387Z,4.45
2023-05-29T20:30:51.257Z,4.95
2023-05-29T20:33:18.031Z,4.60
2023-05-29T20:35:46.437Z,4.13
2023-05-29T20:38:14.203Z,3.90
2023-05-29T20:40:44.994Z,3.63
2023-05-29T20:43:12.857Z,5.60
2023-05-29T20:45:40.079Z,4.05
2023-05-29T20:48:07.001Z,4.18
2023-05-29T20:50:36.608Z,4.47
2023-05-29T20:53:03.648Z,3.63
2023-05-29T20:55:30.298Z,3.97
2023-05-29T20:57:58.095Z,4.13
2023-05-29T21:00:24.796Z,3.85
2023-05-29T21:02:51.531Z,3.72
2023-05-29T21:05:18.318Z,4.38
2023-05-29T21:07:45.016Z,4.30
2023-05-29T21:10:11.703Z,4.75
2023-05-29T21:12:38.495Z,3.80
2023-05-29T21:15:05.579Z,4.25
2023-05-29T21:17:35.554Z,5.25
2023-05-29T21:20:02.501Z,4.20
2023-05-29T21:22:30.474Z,4.80
2023-05-29T21:24:58.057Z,4.47
2023-05-29T21:27:24.841Z,5.18
2023-05-29T21:29:51.608Z,4.35
2023-05-29T21:32:21.190Z,4.70
2023-05-29T21:34:50.507Z,4.70
2023-05-29T21:37:23.969Z,4.40
2023-05-29T21:39:51.373Z,4.22
2023-05-29T21:42:18.273Z,4.35
2023-05-29T21:44:45.100Z,3.83
2023-05-29T21:47:12.379Z,4.65
2023-05-29T21:49:39.075Z,3.95
2023-05-29T21:52:05.936Z,4.57
2023-05-29T21:54:32.576Z,4.07
2023-05-29T21:56:59.416Z,4.97
2023-05-29T21:59:26.229Z,5.05
2023-05-29T22:01:53.201Z,4.13
2023-05-29T22:04:20.253Z,4.35
2023-05-29T22:06:46.954Z,4.60
2023-05-29T22:09:13.728Z,5.15
2023-05-29T22:11:40.377Z,4.57
2023-05-29T22:14:10.488Z,4.72
2023-05-29T22:16:37.184Z,4.43
2023-05-29T22:19:06.260Z,4.53
2023-05-29T22:21:33.909Z,4.03
2023-05-29T22:24:03.514Z,4.38
2023-05-29T22:26:30.827Z,4.07
2023-05-29T22:28:57.627Z,3.85
2023-05-29T22:31:24.442Z,4.72
2023-05-29T22:33:51.448Z,4.70
2023-05-29T22:36:21.976Z,4.47
2023-05-29T22:38:48.742Z,4.38
2023-05-29T22:41:18.103Z,4.68
2023-05-29T22:43:45.169Z,4.30
2023-05-29T22:46:11.844Z,4.60
2023-05-29T22:48:38.888Z,4.82
2023-05-29T22:51:08.406Z,3.97
2023-05-29T22:53:35.729Z,4.22
2023-05-29T22:56:02.419Z,4.80
2023-05-29T22:58:29.286Z,4.93
2023-05-29T23:00:56.442Z,4.05
2023-05-29T23:03:24.422Z,4.28
2023-05-29T23:05:52.185Z,4.78
2023-05-29T23:08:19.000Z,3.95
2023-05-29T23:10:46.032Z,4.65
2023-05-29T23:13:12.733Z,4.03
2023-05-29T23:15:40.366Z,4.30
2023-05-29T23:18:08.128Z,3.92
2023-05-29T23:20:35.043Z,4.60
2023-05-29T23:23:01.900Z,4.43
2023-05-29T23:25:28.845Z,4.30
2023-05-29T23:27:55.522Z,4.05
2023-05-29T23:30:22.743Z,4.47
2023-05-29T23:32:49.483Z,5.55
2023-05-29T23:35:16.757Z,4.38
2023-05-29T23:37:43.380Z,4.00
2023-05-29T23:40:10.541Z,3.97
2023-05-29T23:42:37.236Z,4.35
2023-05-29T23:45:05.072Z,4.50
2023-05-29T23:47:34.201Z,4.15
2023-05-29T23:50:01.019Z,5.00
2023-05-29T23:52:28.449Z,4.38
2023-05-29T23:54:55.157Z,3.80
2023-05-29T23:57:21.780Z,4.38
2023-05-29T23:59:48.508Z,4.93
